Time;durP1;ratioP1;P1;durP2;ratioP2;P2;SDS_P1;SDS_P2;PMS_P1;PMS_P2;Temp;Humidity;BMP_temperature;BMP_pressure;BME280_temperature;BME280_humidity;BME280_pressure;Samples;Min_cycle;Max_cycle;Signal;HPM_P1;HPM_P2
2023/06/03 00:00:18;;;;;;;6.63;1.58;;;12.40;99.90;;;;;;7372482;19;20679;-65
2023/06/03 00:02:47;;;;;;;3.70;1.50;;;12.40;99.90;;;;;;7374060;19;20775;-66
2023/06/03 00:05:17;;;;;;;2.42;1.20;;;12.30;99.90;;;;;;7372469;19;20019;-65
2023/06/03 00:07:44;;;;;;;2.10;1.33;;;12.20;99.90;;;;;;7369939;19;20031;-66
2023/06/03 00:10:10;;;;;;;3.70;1.58;;;12.20;99.90;;;;;;7373030;19;20871;-65
2023/06/03 00:12:37;;;;;;;3.25;1.13;;;12.20;99.90;;;;;;7372835;19;20049;-65
2023/06/03 00:15:04;;;;;;;2.53;1.20;;;12.10;99.90;;;;;;7369416;19;20047;-65
2023/06/03 00:17:31;;;;;;;4.05;1.75;;;12.10;99.90;;;;;;7367352;19;20022;-65
2023/06/03 00:19:57;;;;;;;4.03;1.30;;;12.10;99.90;;;;;;7365783;19;20022;-65
2023/06/03 00:22:24;;;;;;;3.60;1.73;;;12.00;99.90;;;;;;7365416;19;20014;-65
2023/06/03 00:24:50;;;;;;;3.58;1.23;;;12.00;99.90;;;;;;7369244;19;20029;-65
2023/06/03 00:27:17;;;;;;;2.75;1.15;;;11.90;99.90;;;;;;7367961;19;20022;-65
2023/06/03 00:29:43;;;;;;;2.28;1.10;;;11.90;99.90;;;;;;7367517;19;20032;-65
2023/06/03 00:32:09;;;;;;;2.80;1.10;;;11.80;99.90;;;;;;7367432;19;20022;-65
2023/06/03 00:34:36;;;;;;;3.38;1.17;;;11.80;99.90;;;;;;7355668;19;20857;-65
2023/06/03 00:37:02;;;;;;;4.60;1.40;;;11.80;99.90;;;;;;7370197;19;20010;-65
2023/06/03 00:39:28;;;;;;;6.75;1.27;;;11.70;99.90;;;;;;7368144;19;20022;-65
2023/06/03 00:41:57;;;;;;;5.07;1.10;;;11.70;99.90;;;;;;7372420;19;20053;-65
2023/06/03 00:44:23;;;;;;;2.53;1.05;;;11.70;99.90;;;;;;7371784;19;20023;-65
2023/06/03 00:46:50;;;;;;;1.52;0.80;;;11.60;99.90;;;;;;7371388;19;20018;-65
2023/06/03 00:49:17;;;;;;;4.70;1.20;;;11.60;99.90;;;;;;7369845;19;20470;-65
2023/06/03 00:51:43;;;;;;;5.05;1.50;;;11.50;99.90;;;;;;7372412;19;20039;-65
2023/06/03 00:54:09;;;;;;;5.45;2.20;;;11.50;99.90;;;;;;7369667;19;20018;-65
2023/06/03 00:56:42;;;;;;;2.65;1.20;;;11.50;99.90;;;;;;7372237;19;20025;-65
2023/06/03 00:59:13;;;;;;;2.13;0.93;;;11.40;99.90;;;;;;7367744;19;20348;-65
2023/06/03 01:01:42;;;;;;;3.20;1.05;;;11.40;99.90;;;;;;7362659;19;20486;-65
2023/06/03 01:04:18;;;;;;;2.72;1.20;;;11.30;99.90;;;;;;7363541;19;20081;-60
2023/06/03 01:07:16;;;;;;;2.63;0.90;;;11.30;99.90;;;;;;7374443;19;20530;-65
2023/06/03 01:10:00;;;;;;;4.40;1.50;;;11.20;99.90;;;;;;7371041;19;20031;-65
2023/06/03 01:12:53;;;;;;;4.18;1.48;;;11.20;99.90;;;;;;7371952;19;20368;-60
2023/06/03 01:15:25;;;;;;;3.30;1.00;;;11.20;99.90;;;;;;7372926;19;20678;-60
2023/06/03 01:17:57;;;;;;;2.80;1.25;;;11.10;99.90;;;;;;7369921;19;20097;-59
2023/06/03 01:20:26;;;;;;;2.63;1.10;;;11.10;99.90;;;;;;7367126;19;20050;-60
2023/06/03 01:23:11;;;;;;;3.20;1.23;;;11.10;99.90;;;;;;7369611;19;20041;-60
2023/06/03 01:25:40;;;;;;;2.40;1.42;;;11.00;99.90;;;;;;7366128;19;20026;-59
2023/06/03 01:28:07;;;;;;;2.97;1.00;;;11.00;99.90;;;;;;7372488;19;20028;-60
2023/06/03 01:30:34;;;;;;;2.35;1.25;;;11.00;99.90;;;;;;7368873;19;20061;-60
2023/06/03 01:33:02;;;;;;;3.05;1.10;;;11.00;99.90;;;;;;7368704;19;20827;-60
2023/06/03 01:35:28;;;;;;;6.50;1.05;;;10.90;99.90;;;;;;7369205;19;20035;-60
2023/06/03 01:37:56;;;;;;;2.10;1.10;;;10.90;99.90;;;;;;7367147;19;20029;-60
2023/06/03 01:40:23;;;;;;;2.75;1.55;;;10.90;99.90;;;;;;7365579;19;20018;-61
2023/06/03 01:42:50;;;;;;;2.97;1.13;;;10.80;99.90;;;;;;7369615;19;20667;-59
2023/06/03 01:45:17;;;;;;;3.17;1.00;;;10.80;99.90;;;;;;7367751;19;20010;-60
2023/06/03 01:47:43;;;;;;;3.40;1.20;;;10.70;99.90;;;;;;7369090;19;20019;-59
2023/06/03 01:50:09;;;;;;;4.00;1.15;;;10.70;99.90;;;;;;7363990;19;20078;-60
2023/06/03 01:52:36;;;;;;;3.35;1.25;;;10.70;99.90;;;;;;7365497;19;20026;-60
2023/06/03 01:55:04;;;;;;;1.92;0.90;;;10.60;99.90;;;;;;7369085;19;20040;-60
2023/06/03 01:57:31;;;;;;;1.80;1.10;;;10.70;99.90;;;;;;7361792;19;20026;-60
2023/06/03 01:59:58;;;;;;;1.73;1.05;;;10.60;99.90;;;;;;7361340;19;20134;-60
2023/06/03 02:02:25;;;;;;;3.03;1.23;;;10.50;99.90;;;;;;7368920;19;20081;-60
2023/06/03 02:04:56;;;;;;;2.30;1.00;;;10.50;99.90;;;;;;7372676;19;20022;-60
2023/06/03 02:07:25;;;;;;;3.80;1.17;;;10.50;99.90;;;;;;7366726;19;20505;-60
2023/06/03 02:09:52;;;;;;;2.97;1.23;;;10.50;99.90;;;;;;7369966;19;20371;-60
2023/06/03 02:12:19;;;;;;;4.53;1.20;;;10.40;99.90;;;;;;7366168;19;20030;-60
2023/06/03 02:14:53;;;;;;;5.97;1.13;;;10.40;99.90;;;;;;7370828;19;20026;-60
2023/06/03 02:17:26;;;;;;;2.63;1.00;;;10.40;99.90;;;;;;7363008;19;20506;-60
2023/06/03 02:19:54;;;;;;;4.90;1.45;;;10.30;99.90;;;;;;7366965;19;20321;-66
2023/06/03 02:22:22;;;;;;;2.70;1.15;;;10.30;99.90;;;;;;7366602;19;20068;-66
2023/06/03 02:24:49;;;;;;;1.92;1.10;;;10.30;99.90;;;;;;7368993;19;20029;-66
2023/06/03 02:27:24;;;;;;;5.35;1.25;;;10.20;99.90;;;;;;7362626;19;20026;-61
2023/06/03 02:29:51;;;;;;;5.47;1.38;;;10.20;99.90;;;;;;7367383;19;20026;-60
2023/06/03 02:32:19;;;;;;;3.15;1.23;;;10.20;99.90;;;;;;7366123;19;20023;-60
2023/06/03 02:34:46;;;;;;;3.33;1.48;;;10.20;99.90;;;;;;7371502;19;20014;-60
2023/06/03 02:37:16;;;;;;;3.28;1.23;;;10.20;99.90;;;;;;7370163;19;20058;-65
2023/06/03 02:39:43;;;;;;;3.13;1.20;;;10.10;99.90;;;;;;7372338;19;20466;-65
2023/06/03 02:42:10;;;;;;;3.08;1.05;;;10.10;99.90;;;;;;7373085;19;20356;-65
2023/06/03 02:44:37;;;;;;;4.82;1.25;;;10.10;99.90;;;;;;7376088;19;20029;-59
2023/06/03 02:47:04;;;;;;;4.57;1.42;;;10.00;99.90;;;;;;7376522;19;20597;-60
2023/06/03 02:49:31;;;;;;;2.83;1.10;;;9.90;99.90;;;;;;7376575;19;20032;-66
2023/06/03 02:51:58;;;;;;;3.17;1.40;;;9.90;99.90;;;;;;7372831;19;20025;-65
2023/06/03 02:54:24;;;;;;;2.45;1.30;;;9.90;99.90;;;;;;7374808;19;20015;-65
2023/06/03 02:56:51;;;;;;;3.08;1.40;;;9.80;99.90;;;;;;7374906;19;20018;-65
2023/06/03 02:59:17;;;;;;;2.22;1.05;;;9.80;99.90;;;;;;7369620;19;20074;-64
2023/06/03 03:01:44;;;;;;;2.88;1.17;;;9.80;99.90;;;;;;7371686;19;20966;-66
2023/06/03 03:04:10;;;;;;;2.28;1.08;;;9.80;99.90;;;;;;7373855;19;20014;-60
2023/06/03 03:06:37;;;;;;;2.58;1.55;;;9.70;99.90;;;;;;7367626;19;20025;-59
2023/06/03 03:09:07;;;;;;;3.45;1.60;;;9.70;99.90;;;;;;7371199;19;20487;-59
2023/06/03 03:11:41;;;;;;;3.50;1.35;;;9.70;99.90;;;;;;7375210;19;20517;-60
2023/06/03 03:14:07;;;;;;;3.80;1.13;;;9.60;99.90;;;;;;7374132;19;20709;-60
2023/06/03 03:16:35;;;;;;;2.08;1.40;;;9.60;99.90;;;;;;7374600;19;20097;-60
2023/06/03 03:19:03;;;;;;;3.40;1.65;;;9.60;99.90;;;;;;7375049;19;20029;-60
2023/06/03 03:21:30;;;;;;;3.65;1.50;;;9.60;99.90;;;;;;7371625;19;20485;-60
2023/06/03 03:23:59;;;;;;;4.95;1.40;;;9.60;99.90;;;;;;7372103;19;20490;-60
2023/06/03 03:26:26;;;;;;;4.55;1.48;;;9.60;99.90;;;;;;7368477;19;20019;-60
2023/06/03 03:28:53;;;;;;;6.50;1.58;;;9.60;99.90;;;;;;7374414;19;20763;-59
2023/06/03 03:31:20;;;;;;;3.40;1.45;;;9.50;99.90;;;;;;7373382;19;20019;-59
2023/06/03 03:33:51;;;;;;;2.83;1.10;;;9.50;99.90;;;;;;7370337;19;20033;-59
2023/06/03 03:36:26;;;;;;;4.53;1.50;;;9.50;99.90;;;;;;7368192;19;20482;-61
2023/06/03 03:39:06;;;;;;;2.58;1.10;;;9.50;99.90;;;;;;7366998;19;20025;-60
2023/06/03 03:41:43;;;;;;;2.78;1.45;;;9.50;99.90;;;;;;7369538;19;20022;-60
2023/06/03 03:44:11;;;;;;;4.35;1.45;;;9.50;99.90;;;;;;7365217;19;20563;-60
2023/06/03 03:46:47;;;;;;;2.38;1.40;;;9.50;99.90;;;;;;7370959;19;20049;-59
2023/06/03 03:49:26;;;;;;;3.30;1.30;;;9.50;99.90;;;;;;7374310;19;20014;-60
2023/06/03 03:51:53;;;;;;;5.25;1.40;;;9.50;99.90;;;;;;7370876;19;20030;-60
2023/06/03 03:54:23;;;;;;;2.25;1.45;;;9.50;99.90;;;;;;7373045;19;20051;-60
2023/06/03 03:56:56;;;;;;;7.72;1.58;;;9.40;99.90;;;;;;7373828;19;20023;-60
2023/06/03 03:59:27;;;;;;;6.57;1.70;;;9.50;99.90;;;;;;7370466;19;20028;-65
2023/06/03 04:01:55;;;;;;;3.75;1.73;;;9.50;99.90;;;;;;7372374;19;20019;-65
2023/06/03 04:04:43;;;;;;;2.28;1.20;;;9.50;99.90;;;;;;7371176;19;20018;-65
2023/06/03 04:07:16;;;;;;;5.10;1.52;;;9.50;99.90;;;;;;7374778;19;20022;-66
2023/06/03 04:09:44;;;;;;;3.70;1.60;;;9.50;99.90;;;;;;7373172;19;20019;-60
2023/06/03 04:12:25;;;;;;;3.60;1.30;;;9.50;99.90;;;;;;7369645;19;20022;-60
2023/06/03 04:14:53;;;;;;;4.78;1.55;;;9.60;99.90;;;;;;7371128;19;20022;-60
2023/06/03 04:17:25;;;;;;;2.92;1.40;;;9.60;99.90;;;;;;7367808;19;20035;-60
2023/06/03 04:19:52;;;;;;;2.25;1.50;;;9.60;99.90;;;;;;7364009;19;20026;-60
2023/06/03 04:22:23;;;;;;;6.25;1.70;;;9.70;99.90;;;;;;7362057;19;20026;-59
2023/06/03 04:25:01;;;;;;;2.78;1.42;;;9.70;99.90;;;;;;7365320;19;20014;-59
2023/06/03 04:27:46;;;;;;;4.78;1.55;;;9.70;99.90;;;;;;7368551;19;20026;-66
2023/06/03 04:30:15;;;;;;;5.00;1.60;;;9.80;99.90;;;;;;7365459;19;20014;-65
2023/06/03 04:32:41;;;;;;;3.40;1.55;;;9.80;99.90;;;;;;7363926;19;20025;-65
2023/06/03 04:35:08;;;;;;;3.85;1.50;;;9.90;99.90;;;;;;7366336;19;20030;-65
2023/06/03 04:37:37;;;;;;;3.42;1.70;;;9.90;99.90;;;;;;7364412;19;20807;-65
2023/06/03 04:40:09;;;;;;;5.82;1.70;;;10.00;99.90;;;;;;7366764;19;20023;-66
2023/06/03 04:42:35;;;;;;;4.25;1.58;;;10.10;99.90;;;;;;7364572;19;20593;-65
2023/06/03 04:45:05;;;;;;;7.05;1.65;;;10.10;99.90;;;;;;7369211;19;20814;-65
2023/06/03 04:47:35;;;;;;;5.65;1.88;;;10.20;99.90;;;;;;7365998;19;20026;-65
2023/06/03 04:50:04;;;;;;;5.38;1.70;;;10.30;99.90;;;;;;7368858;19;20392;-66
2023/06/03 04:52:35;;;;;;;4.68;1.73;;;10.30;99.90;;;;;;7365328;19;20022;-61
2023/06/03 04:55:02;;;;;;;4.93;1.83;;;10.40;99.90;;;;;;7369535;19;20015;-61
2023/06/03 04:57:29;;;;;;;5.78;1.40;;;10.50;99.90;;;;;;7371905;19;20018;-61
2023/06/03 04:59:55;;;;;;;4.03;1.58;;;10.60;99.90;;;;;;7369818;19;20913;-59
2023/06/03 05:02:29;;;;;;;2.60;1.60;;;10.70;99.90;;;;;;7367912;19;20019;-59
2023/06/03 05:04:57;;;;;;;5.07;1.85;;;10.80;99.90;;;;;;7371877;19;20078;-61
2023/06/03 05:07:26;;;;;;;5.18;1.70;;;11.10;99.90;;;;;;7371262;19;20555;-61
2023/06/03 05:09:53;;;;;;;10.00;2.30;;;11.50;99.90;;;;;;7371163;19;20058;-59
2023/06/03 05:12:20;;;;;;;4.28;1.85;;;11.90;99.90;;;;;;7369987;19;20512;-59
2023/06/03 05:14:47;;;;;;;5.03;1.58;;;12.40;99.90;;;;;;7372864;19;20022;-60
2023/06/03 05:17:14;;;;;;;2.20;1.30;;;12.70;99.90;;;;;;7373201;19;20109;-59
2023/06/03 05:19:40;;;;;;;6.25;1.80;;;12.90;99.90;;;;;;7369606;19;20060;-65
2023/06/03 05:22:07;;;;;;;3.05;1.20;;;13.00;99.90;;;;;;7368837;19;20014;-65
2023/06/03 05:24:35;;;;;;;4.15;2.50;;;13.20;99.90;;;;;;7368046;19;20022;-65
2023/06/03 05:27:03;;;;;;;3.10;1.42;;;13.30;99.90;;;;;;7367938;19;20018;-65
2023/06/03 05:29:30;;;;;;;6.35;2.00;;;13.60;99.90;;;;;;7370812;19;20907;-65
2023/06/03 05:31:57;;;;;;;3.50;1.70;;;13.60;99.90;;;;;;7372270;19;20058;-65
2023/06/03 05:34:24;;;;;;;3.17;1.35;;;13.80;99.90;;;;;;7370543;19;20897;-66
2023/06/03 05:36:50;;;;;;;3.60;1.65;;;14.10;99.90;;;;;;7370392;19;20036;-66
2023/06/03 05:39:17;;;;;;;4.00;1.58;;;14.20;99.90;;;;;;7370858;19;20082;-65
2023/06/03 05:41:44;;;;;;;4.95;1.45;;;14.40;99.90;;;;;;7362376;19;20023;-60
2023/06/03 05:44:13;;;;;;;6.00;1.70;;;14.50;99.90;;;;;;7363853;19;20030;-60
2023/06/03 05:46:39;;;;;;;2.97;1.58;;;14.50;99.90;;;;;;7367402;19;20019;-59
2023/06/03 05:49:06;;;;;;;3.15;1.13;;;14.60;99.90;;;;;;7363850;19;20022;-62
2023/06/03 05:51:32;;;;;;;10.40;1.95;;;14.80;99.90;;;;;;7360265;19;21234;-61
2023/06/03 05:53:59;;;;;;;2.78;1.35;;;15.00;99.90;;;;;;7359059;19;20022;-60
2023/06/03 05:56:26;;;;;;;5.05;2.50;;;15.10;99.90;;;;;;7364744;19;20022;-60
2023/06/03 05:58:52;;;;;;;2.15;1.30;;;15.30;99.50;;;;;;7367932;19;20727;-58
2023/06/03 06:01:19;;;;;;;4.95;2.17;;;15.50;98.90;;;;;;7369287;19;20022;-59
2023/06/03 06:03:48;;;;;;;3.25;1.45;;;15.60;96.90;;;;;;7366164;19;20042;-65
2023/06/03 06:06:15;;;;;;;4.70;1.30;;;15.70;97.00;;;;;;7372890;19;20018;-66
2023/06/03 06:08:43;;;;;;;2.97;1.60;;;15.80;94.90;;;;;;7373039;19;20078;-65
2023/06/03 06:11:10;;;;;;;6.18;2.40;;;16.00;94.90;;;;;;7376614;19;20025;-59
2023/06/03 06:13:36;;;;;;;5.72;3.10;;;16.10;93.60;;;;;;7374061;19;20011;-61
2023/06/03 06:16:04;;;;;;;3.10;1.30;;;16.20;92.40;;;;;;7367358;19;20018;-62
2023/06/03 06:18:32;;;;;;;3.83;1.65;;;16.00;92.10;;;;;;7366563;19;20019;-66
2023/06/03 06:20:59;;;;;;;3.45;1.35;;;15.80;91.50;;;;;;7366256;19;20014;-66
2023/06/03 06:23:25;;;;;;;13.93;8.98;;;15.50;90.50;;;;;;7373697;19;20479;-66
2023/06/03 06:25:54;;;;;;;4.82;2.47;;;15.80;90.50;;;;;;7372737;19;20114;-66
2023/06/03 06:28:24;;;;;;;4.07;1.50;;;16.10;90.10;;;;;;7376202;19;20025;-66
2023/06/03 06:30:55;;;;;;;9.00;7.28;;;16.20;89.00;;;;;;7375360;19;20589;-66
2023/06/03 06:33:22;;;;;;;2.67;1.20;;;16.50;85.50;;;;;;7374243;19;20026;-66
2023/06/03 06:35:48;;;;;;;4.65;1.15;;;16.80;86.20;;;;;;7374420;19;20018;-66
2023/06/03 06:38:15;;;;;;;4.93;1.33;;;16.70;83.70;;;;;;7371940;19;20018;-67
2023/06/03 06:40:42;;;;;;;4.68;1.60;;;16.80;82.30;;;;;;7376579;19;20046;-66
2023/06/03 06:43:14;;;;;;;11.20;8.15;;;17.00;78.60;;;;;;7369690;19;21610;-67
2023/06/03 06:45:45;;;;;;;5.65;1.20;;;17.10;74.90;;;;;;7377590;19;20050;-72
2023/06/03 06:48:13;;;;;;;1.80;1.10;;;17.10;73.10;;;;;;7372258;19;20025;-67
2023/06/03 06:50:55;;;;;;;9.18;6.57;;;17.00;71.10;;;;;;7372721;19;20019;-67
2023/06/03 06:53:35;;;;;;;3.20;1.10;;;17.30;72.60;;;;;;7360146;19;20028;-67
2023/06/03 06:56:08;;;;;;;4.15;1.52;;;17.50;70.20;;;;;;7373716;19;20014;-66
2023/06/03 06:58:39;;;;;;;7.65;4.55;;;17.50;68.70;;;;;;7369816;19;20019;-65
2023/06/03 07:01:06;;;;;;;5.65;2.70;;;17.80;67.60;;;;;;7374395;19;20470;-66
2023/06/03 07:03:35;;;;;;;0.95;0.70;;;17.90;67.00;;;;;;7368578;19;20090;-67
2023/06/03 07:06:02;;;;;;;6.82;1.20;;;17.90;66.70;;;;;;7375531;19;20022;-67
2023/06/03 07:08:31;;;;;;;2.67;1.20;;;18.20;64.80;;;;;;7374397;19;20018;-67
2023/06/03 07:11:03;;;;;;;3.58;1.00;;;18.60;65.90;;;;;;7375383;19;20022;-67
2023/06/03 07:13:32;;;;;;;1.85;0.85;;;18.80;63.80;;;;;;7372583;19;20011;-67
2023/06/03 07:16:00;;;;;;;5.15;2.92;;;18.90;62.70;;;;;;7373632;19;20030;-67
2023/06/03 07:18:28;;;;;;;5.38;3.50;;;19.20;61.90;;;;;;7369198;19;20019;-67
2023/06/03 07:20:55;;;;;;;9.20;6.40;;;19.30;60.30;;;;;;7370671;19;20370;-70
2023/06/03 07:23:26;;;;;;;25.38;22.65;;;19.50;58.30;;;;;;7368061;19;20623;-69
2023/06/03 07:25:54;;;;;;;3.40;2.15;;;19.90;58.20;;;;;;7370812;19;20086;-71
2023/06/03 07:28:25;;;;;;;5.82;2.30;;;20.50;56.80;;;;;;7367477;19;20026;-70
2023/06/03 07:30:52;;;;;;;15.55;13.40;;;20.60;56.30;;;;;;7368198;19;20039;-68
2023/06/03 07:33:27;;;;;;;17.25;15.50;;;20.50;56.60;;;;;;7364281;19;20091;-66
2023/06/03 07:36:01;;;;;;;8.20;6.95;;;20.20;55.90;;;;;;7375460;19;20021;-66
2023/06/03 07:38:39;;;;;;;11.02;9.18;;;20.00;56.10;;;;;;7370627;19;20022;-65
2023/06/03 07:41:13;;;;;;;7.75;4.72;;;20.40;55.10;;;;;;7382818;19;20022;-63
2023/06/03 07:43:45;;;;;;;13.82;12.15;;;20.40;53.90;;;;;;7382511;19;20026;-63
2023/06/03 07:46:11;;;;;;;9.43;8.23;;;20.70;53.90;;;;;;7385145;19;20562;-64
2023/06/03 07:48:37;;;;;;;4.38;3.35;;;21.00;54.00;;;;;;7370827;19;20108;-58
2023/06/03 07:51:05;;;;;;;1.92;1.25;;;21.40;52.10;;;;;;7376320;19;20014;-59
2023/06/03 07:53:36;;;;;;;2.97;0.90;;;21.50;49.30;;;;;;7368100;19;20050;-60
2023/06/03 07:56:13;;;;;;;5.07;2.95;;;21.90;49.80;;;;;;7376262;19;20035;-59
2023/06/03 07:58:40;;;;;;;9.52;6.25;;;21.80;46.80;;;;;;7369873;19;20023;-60
2023/06/03 08:01:06;;;;;;;6.35;5.70;;;21.30;47.40;;;;;;7365527;19;20851;-59
2023/06/03 08:03:33;;;;;;;3.60;2.03;;;21.30;46.70;;;;;;7366150;19;20021;-60
2023/06/03 08:06:00;;;;;;;4.07;1.98;;;21.20;46.30;;;;;;7368422;19;20047;-59
2023/06/03 08:08:32;;;;;;;7.65;3.80;;;21.50;46.50;;;;;;7362136;19;20022;-60
2023/06/03 08:11:01;;;;;;;9.65;8.57;;;21.80;45.90;;;;;;7373349;19;20105;-59
2023/06/03 08:13:28;;;;;;;3.60;2.38;;;22.00;45.20;;;;;;7370119;19;20018;-59
2023/06/03 08:15:54;;;;;;;10.15;5.72;;;21.90;45.00;;;;;;7371231;19;20019;-59
2023/06/03 08:18:47;;;;;;;3.05;1.85;;;22.10;44.70;;;;;;7365784;19;20039;-59
2023/06/03 08:21:14;;;;;;;8.73;4.57;;;21.40;43.80;;;;;;7369263;19;20011;-60
2023/06/03 08:23:41;;;;;;;1.98;0.98;;;21.30;45.00;;;;;;7370860;19;20062;-60
2023/06/03 08:26:08;;;;;;;5.20;2.97;;;21.30;44.00;;;;;;7370633;19;20485;-60
2023/06/03 08:28:38;;;;;;;4.15;2.35;;;21.50;45.20;;;;;;7365678;19;20031;-59
2023/06/03 08:31:04;;;;;;;4.07;2.05;;;21.80;43.70;;;;;;7366155;19;20078;-60
2023/06/03 08:33:31;;;;;;;4.43;2.45;;;22.10;44.30;;;;;;7364925;19;20416;-61
2023/06/03 08:35:57;;;;;;;7.25;2.55;;;22.10;42.60;;;;;;7365714;19;20010;-61
2023/06/03 08:38:24;;;;;;;4.38;1.40;;;21.70;41.70;;;;;;7363306;19;20018;-60
2023/06/03 08:40:52;;;;;;;4.75;2.30;;;21.40;42.30;;;;;;7367106;19;20023;-60
2023/06/03 08:43:21;;;;;;;2.47;0.68;;;20.90;42.30;;;;;;7362765;19;20026;-61
2023/06/03 08:45:55;;;;;;;1.85;0.63;;;20.90;42.00;;;;;;7360955;19;20627;-61
2023/06/03 08:48:51;;;;;;;3.67;1.95;;;21.40;41.10;;;;;;7365068;19;20014;-60
2023/06/03 08:51:23;;;;;;;9.07;6.78;;;21.50;40.20;;;;;;7368461;19;20014;-61
2023/06/03 08:53:51;;;;;;;12.57;10.07;;;22.00;41.00;;;;;;7367257;19;20019;-63
2023/06/03 08:56:20;;;;;;;7.78;3.80;;;22.00;40.70;;;;;;7372140;19;20025;-62
2023/06/03 08:59:01;;;;;;;17.55;15.73;;;22.40;41.00;;;;;;7366758;19;20022;-62
2023/06/03 09:01:32;;;;;;;16.08;13.68;;;22.90;41.90;;;;;;7364525;19;20018;-63
2023/06/03 09:04:02;;;;;;;4.25;3.25;;;22.10;40.90;;;;;;7369966;19;20053;-61
2023/06/03 09:06:28;;;;;;;7.38;5.78;;;22.30;40.60;;;;;;7364504;19;20786;-65
2023/06/03 09:08:57;;;;;;;21.17;4.88;;;22.80;41.20;;;;;;7373342;19;20022;-68
2023/06/03 09:11:25;;;;;;;2.72;0.98;;;22.90;40.60;;;;;;7370104;19;20026;-68
2023/06/03 09:13:53;;;;;;;2.50;0.80;;;23.20;40.40;;;;;;7370876;19;20015;-69
2023/06/03 09:16:20;;;;;;;3.03;0.60;;;23.40;40.10;;;;;;7370206;19;20026;-64
2023/06/03 09:18:49;;;;;;;2.75;0.98;;;22.40;37.80;;;;;;7369995;19;21025;-63
2023/06/03 09:21:16;;;;;;;1.60;1.00;;;22.00;38.80;;;;;;7370646;19;20022;-69
2023/06/03 09:23:43;;;;;;;2.72;0.75;;;21.50;39.00;;;;;;7371201;19;20789;-62
2023/06/03 09:26:09;;;;;;;11.70;9.68;;;21.50;39.00;;;;;;7374595;19;20021;-65
2023/06/03 09:28:36;;;;;;;7.55;4.13;;;21.20;39.20;;;;;;7368196;19;20503;-63
2023/06/03 09:31:05;;;;;;;2.03;0.90;;;20.80;39.90;;;;;;7372366;19;20024;-65
2023/06/03 09:33:32;;;;;;;2.30;0.70;;;20.90;40.10;;;;;;7369922;19;20797;-64
2023/06/03 09:36:12;;;;;;;2.97;0.70;;;20.60;39.60;;;;;;7371615;19;20099;-63
2023/06/03 09:38:49;;;;;;;1.13;0.60;;;20.60;40.50;;;;;;7368725;19;20391;-65
2023/06/03 09:41:18;;;;;;;1.65;0.80;;;20.80;41.40;;;;;;7363429;19;20470;-72
2023/06/03 09:44:01;;;;;;;3.58;0.82;;;21.30;40.90;;;;;;7365962;19;20019;-63
2023/06/03 09:46:33;;;;;;;1.70;0.70;;;21.80;41.30;;;;;;7356388;19;20030;-71
2023/06/03 09:49:14;;;;;;;5.05;0.90;;;22.60;41.20;;;;;;7369261;19;20802;-61
2023/06/03 09:51:48;;;;;;;3.05;0.73;;;23.00;39.80;;;;;;7368390;19;20024;-61
2023/06/03 09:54:16;;;;;;;2.85;0.77;;;23.50;39.60;;;;;;7368546;19;20023;-71
2023/06/03 09:56:47;;;;;;;2.85;0.90;;;23.80;40.20;;;;;;7368576;19;20490;-67
2023/06/03 09:59:17;;;;;;;2.47;0.93;;;24.20;38.70;;;;;;7369316;19;20849;-71
2023/06/03 10:01:46;;;;;;;3.33;1.40;;;23.90;37.70;;;;;;7373947;19;20029;-67
2023/06/03 10:04:24;;;;;;;3.45;0.98;;;23.00;37.00;;;;;;7369486;19;20287;-68
2023/06/03 10:07:10;;;;;;;5.50;3.88;;;23.90;38.30;;;;;;7368660;19;20018;-67
2023/06/03 10:09:37;;;;;;;39.58;35.45;;;24.10;37.90;;;;;;7369988;19;20019;-67
2023/06/03 10:12:04;;;;;;;19.90;17.90;;;24.00;38.20;;;;;;7366021;19;20360;-67
2023/06/03 10:14:31;;;;;;;5.45;3.75;;;24.60;37.80;;;;;;7365902;19;20037;-69
2023/06/03 10:17:06;;;;;;;6.93;4.82;;;24.60;37.40;;;;;;7363658;19;20014;-66
2023/06/03 10:19:43;;;;;;;6.78;3.72;;;24.60;37.60;;;;;;7360348;19;20030;-66
2023/06/03 10:22:12;;;;;;;7.13;4.95;;;24.50;36.60;;;;;;7368050;19;20488;-66
2023/06/03 10:24:42;;;;;;;4.72;2.03;;;24.70;37.60;;;;;;7369618;19;20018;-66
2023/06/03 10:27:09;;;;;;;5.55;3.17;;;25.00;37.90;;;;;;7369302;19;20035;-65
2023/06/03 10:29:36;;;;;;;1.83;0.90;;;24.90;37.10;;;;;;7364983;19;20033;-65
2023/06/03 10:32:08;;;;;;;3.83;1.42;;;25.00;35.90;;;;;;7364032;19;20765;-66
2023/06/03 10:34:38;;;;;;;4.00;1.27;;;25.20;37.40;;;;;;7367559;19;20057;-65
2023/06/03 10:37:06;;;;;;;3.15;1.60;;;24.80;36.80;;;;;;7365573;19;20022;-66
2023/06/03 10:39:32;;;;;;;4.28;3.00;;;25.10;36.90;;;;;;7367916;19;20039;-64
2023/06/03 10:42:03;;;;;;;3.05;1.60;;;25.30;36.50;;;;;;7373670;19;20082;-65
2023/06/03 10:44:30;;;;;;;6.13;4.55;;;25.30;36.40;;;;;;7378418;19;20502;-64
2023/06/03 10:47:16;;;;;;;3.72;2.20;;;25.10;36.50;;;;;;7372242;19;20015;-64
2023/06/03 10:49:48;;;;;;;4.15;1.40;;;24.80;36.00;;;;;;7374556;19;20014;-64
2023/06/03 10:52:35;;;;;;;6.25;0.85;;;24.90;35.80;;;;;;7379318;19;20018;-64
2023/06/03 10:55:32;;;;;;;4.03;1.42;;;25.20;35.60;;;;;;7387808;19;20019;-65
2023/06/03 10:58:19;;;;;;;2.83;1.08;;;25.10;36.50;;;;;;7387035;19;20036;-64
2023/06/03 11:01:03;;;;;;;2.97;1.30;;;25.40;36.10;;;;;;7385464;19;20051;-69
2023/06/03 11:03:34;;;;;;;8.98;7.28;;;25.50;34.90;;;;;;7374132;19;20018;-61
2023/06/03 11:06:29;;;;;;;3.28;1.80;;;25.40;35.30;;;;;;7374542;19;20109;-61
2023/06/03 11:09:08;;;;;;;12.95;10.63;;;25.40;34.70;;;;;;7376330;19;20794;-62
2023/06/03 11:11:44;;;;;;;3.28;2.03;;;25.10;35.10;;;;;;7373997;19;20082;-69
2023/06/03 11:14:11;;;;;;;12.10;10.82;;;25.10;34.70;;;;;;7373028;19;20795;-68
2023/06/03 11:17:00;;;;;;;7.03;4.47;;;25.10;36.10;;;;;;7371768;19;20021;-60
2023/06/03 11:19:36;;;;;;;3.45;1.77;;;25.10;35.00;;;;;;7372232;19;20750;-61
2023/06/03 11:22:13;;;;;;;5.43;2.97;;;25.70;37.20;;;;;;7371998;19;20019;-60
2023/06/03 11:24:39;;;;;;;5.43;1.30;;;25.90;35.80;;;;;;7367577;19;20660;-61
2023/06/03 11:27:14;;;;;;;3.17;1.02;;;26.10;35.80;;;;;;7371984;19;20027;-61
2023/06/03 11:29:46;;;;;;;4.88;1.50;;;25.70;34.10;;;;;;7370295;19;20018;-60
2023/06/03 11:32:15;;;;;;;11.63;10.32;;;26.00;34.60;;;;;;7368899;19;20089;-60
2023/06/03 11:34:43;;;;;;;20.70;18.55;;;26.20;34.60;;;;;;7371699;19;20029;-60
2023/06/03 11:37:15;;;;;;;11.15;8.95;;;26.30;34.90;;;;;;7372243;19;20011;-60
2023/06/03 11:40:08;;;;;;;6.95;5.88;;;26.50;35.10;;;;;;7370543;19;20042;-60
2023/06/03 11:42:47;;;;;;;5.88;3.67;;;26.70;35.40;;;;;;7370994;19;20029;-60
2023/06/03 11:45:36;;;;;;;2.47;1.17;;;26.70;33.40;;;;;;7369744;19;20035;-60
2023/06/03 11:48:08;;;;;;;4.15;2.53;;;26.50;32.30;;;;;;7369679;19;20022;-60
2023/06/03 11:50:54;;;;;;;4.40;2.58;;;26.30;32.70;;;;;;7369800;19;20020;-60
2023/06/03 11:53:34;;;;;;;5.65;1.98;;;26.20;33.90;;;;;;7370196;19;20025;-65
2023/06/03 11:56:05;;;;;;;3.42;2.47;;;26.40;34.20;;;;;;7370249;19;20015;-67
2023/06/03 11:58:31;;;;;;;12.90;11.60;;;26.50;34.20;;;;;;7370247;19;20605;-66
2023/06/03 12:01:11;;;;;;;5.22;1.63;;;26.40;35.60;;;;;;7369554;19;20360;-68
2023/06/03 12:03:38;;;;;;;8.50;4.80;;;26.30;34.30;;;;;;7361472;19;20078;-70
2023/06/03 12:06:05;;;;;;;7.03;3.10;;;26.50;34.20;;;;;;7365180;19;20042;-70
2023/06/03 12:08:48;;;;;;;2.78;1.65;;;26.50;32.80;;;;;;7359871;19;20872;-69
2023/06/03 12:11:29;;;;;;;10.32;7.65;;;26.10;33.00;;;;;;7374624;19;20018;-70
2023/06/03 12:13:56;;;;;;;23.67;21.33;;;26.50;33.20;;;;;;7374859;19;20025;-69
2023/06/03 12:16:33;;;;;;;6.95;3.92;;;26.00;33.10;;;;;;7372711;19;20058;-70
2023/06/03 12:19:06;;;;;;;4.20;2.95;;;25.90;32.80;;;;;;7372269;19;20015;-69
2023/06/03 12:21:36;;;;;;;7.70;5.03;;;26.20;33.40;;;;;;7372631;19;20373;-69
2023/06/03 12:24:10;;;;;;;6.47;5.63;;;26.50;35.20;;;;;;7370877;19;20081;-69
2023/06/03 12:26:38;;;;;;;9.27;8.07;;;26.70;34.10;;;;;;7372885;19;20536;-68
2023/06/03 12:29:09;;;;;;;11.38;8.43;;;26.80;33.70;;;;;;7371157;19;20035;-69
2023/06/03 12:31:35;;;;;;;3.70;1.10;;;26.80;34.00;;;;;;7368642;19;20018;-70
2023/06/03 12:34:02;;;;;;;2.47;0.93;;;26.90;33.20;;;;;;7370238;19;20014;-69
2023/06/03 12:36:46;;;;;;;4.10;1.55;;;26.60;32.30;;;;;;7222415;19;2864310;-69
2023/06/03 12:39:12;;;;;;;3.90;1.58;;;26.30;31.60;;;;;;7365050;19;20023;-70
2023/06/03 12:41:47;;;;;;;2.88;1.00;;;26.30;32.20;;;;;;7369554;19;20022;-70
2023/06/03 12:44:13;;;;;;;13.02;11.45;;;26.20;32.40;;;;;;7371346;19;20047;-68
2023/06/03 12:46:40;;;;;;;7.80;6.97;;;26.60;33.20;;;;;;7366738;19;20018;-69
2023/06/03 12:49:15;;;;;;;33.63;30.13;;;27.00;33.80;;;;;;7365330;19;20019;-68
2023/06/03 12:51:42;;;;;;;16.70;14.98;;;27.10;34.70;;;;;;7364193;19;20710;-68
2023/06/03 12:54:08;;;;;;;11.50;9.13;;;27.60;33.50;;;;;;7369334;19;20015;-68
2023/06/03 12:56:35;;;;;;;5.03;3.42;;;27.80;33.50;;;;;;7367276;19;20481;-68
2023/06/03 12:59:01;;;;;;;4.65;3.13;;;27.60;32.10;;;;;;7368182;19;20054;-68
2023/06/03 13:01:27;;;;;;;8.73;7.13;;;27.30;32.00;;;;;;7369785;19;20573;-69